Time;durP1;ratioP1;P1;durP2;ratioP2;P2;SDS_P1;SDS_P2;PMS_P1;PMS_P2;Temp;Humidity;BMP_temperature;BMP_pressure;BME280_temperature;BME280_humidity;BME280_pressure;Samples;Min_cycle;Max_cycle;Signal;HPM_P1;HPM_P2
2021/07/03 00:02:14;;;;;;;0.70;0.70;;;;;;;;;;7022110;28;20684;-77
2021/07/03 00:05:34;;;;;;;0.40;0.40;;;;;;;;;;7007070;28;20047;-78
2021/07/03 00:08:55;;;;;;;5.10;0.77;;;;;;;;;;7011926;28;20779;-78
2021/07/03 00:12:16;;;;;;;8.48;0.98;;;;;;;;;;7013597;28;20163;-78
2021/07/03 00:15:36;;;;;;;2.45;0.80;;;;;;;;;;7019390;28;20043;-79
2021/07/03 00:18:57;;;;;;;0.60;0.60;;;;;;;;;;7012498;28;20044;-77
2021/07/03 00:22:18;;;;;;;5.15;0.98;;;;;;;;;;7015574;28;20134;-77
2021/07/03 00:25:38;;;;;;;8.95;1.20;;;;;;;;;;7001676;28;20040;-78
2021/07/03 00:28:59;;;;;;;4.40;1.00;;;;;;;;;;7017729;28;20040;-79
2021/07/03 00:32:19;;;;;;;0.77;0.73;;;;;;;;;;7026312;28;20442;-77
2021/07/03 00:35:40;;;;;;;1.60;0.80;;;;;;;;;;7027570;28;20436;-78
2021/07/03 00:39:00;;;;;;;2.33;0.98;;;;;;;;;;7027245;28;20048;-78
2021/07/03 00:42:20;;;;;;;0.75;0.70;;;;;;;;;;7027025;28;20055;-78
2021/07/03 00:45:41;;;;;;;1.48;0.77;;;;;;;;;;7025951;28;20048;-77
2021/07/03 00:49:04;;;;;;;3.05;1.20;;;;;;;;;;7027635;28;20451;-77
2021/07/03 00:52:24;;;;;;;1.13;0.90;;;;;;;;;;7028982;28;20089;-77
2021/07/03 00:55:45;;;;;;;1.83;0.90;;;;;;;;;;7011306;28;20074;-77
2021/07/03 00:59:06;;;;;;;2.95;0.70;;;;;;;;;;7028937;28;20048;-78
2021/07/03 01:02:26;;;;;;;0.93;0.73;;;;;;;;;;7028586;28;20058;-77
2021/07/03 01:05:50;;;;;;;0.90;0.70;;;;;;;;;;7026904;28;20036;-77
2021/07/03 01:09:10;;;;;;;0.95;0.70;;;;;;;;;;7026863;28;20129;-77
2021/07/03 01:12:31;;;;;;;0.98;0.70;;;;;;;;;;7008479;28;20075;-77
2021/07/03 01:15:52;;;;;;;0.60;0.60;;;;;;;;;;7026224;28;20094;-77
2021/07/03 01:19:13;;;;;;;0.82;0.63;;;;;;;;;;7026441;28;20048;-77
2021/07/03 01:22:33;;;;;;;1.40;0.80;;;;;;;;;;7008626;28;20086;-77
2021/07/03 01:25:56;;;;;;;3.38;0.70;;;;;;;;;;7029818;22;20048;-77
2021/07/03 01:29:17;;;;;;;1.38;0.80;;;;;;;;;;6995938;28;20079;-78
2021/07/03 01:32:38;;;;;;;0.88;0.75;;;;;;;;;;6979660;28;20044;-77
2021/07/03 01:35:59;;;;;;;0.90;0.70;;;;;;;;;;6998229;28;20128;-77
2021/07/03 01:39:20;;;;;;;0.80;0.75;;;;;;;;;;6998412;28;20044;-77
2021/07/03 01:42:40;;;;;;;1.50;0.82;;;;;;;;;;6980219;28;20057;-77
2021/07/03 01:46:01;;;;;;;2.15;0.88;;;;;;;;;;6978211;28;20165;-76
2021/07/03 01:49:23;;;;;;;1.00;0.55;;;;;;;;;;6997977;28;20076;-77
2021/07/03 01:52:44;;;;;;;0.65;0.65;;;;;;;;;;6979828;28;20044;-76
2021/07/03 01:56:07;;;;;;;0.85;0.60;;;;;;;;;;6997548;28;20394;-77
2021/07/03 01:59:30;;;;;;;1.20;0.70;;;;;;;;;;6980166;28;20178;-77
2021/07/03 02:02:51;;;;;;;0.80;0.80;;;;;;;;;;6997378;28;20051;-77
2021/07/03 02:06:11;;;;;;;4.43;0.70;;;;;;;;;;6979186;28;20072;-76
2021/07/03 02:09:31;;;;;;;2.17;0.82;;;;;;;;;;6997383;28;20052;-77
2021/07/03 02:12:52;;;;;;;0.98;0.90;;;;;;;;;;6997692;28;20067;-76
2021/07/03 02:16:12;;;;;;;0.63;0.63;;;;;;;;;;6983164;28;20128;-76
2021/07/03 02:19:33;;;;;;;1.35;0.80;;;;;;;;;;6981574;28;20538;-78
2021/07/03 02:22:53;;;;;;;0.70;0.70;;;;;;;;;;6969072;28;20185;-76
2021/07/03 02:26:14;;;;;;;1.20;0.80;;;;;;;;;;6969745;28;20190;-77
2021/07/03 02:29:34;;;;;;;0.70;0.70;;;;;;;;;;6969494;28;21277;-76
2021/07/03 02:32:55;;;;;;;0.60;0.60;;;;;;;;;;6969411;28;20545;-77
2021/07/03 02:36:15;;;;;;;1.15;0.80;;;;;;;;;;6969111;28;20467;-77
2021/07/03 02:39:35;;;;;;;1.30;0.80;;;;;;;;;;6969433;28;20056;-77
2021/07/03 02:42:56;;;;;;;0.70;0.70;;;;;;;;;;6969669;28;20052;-76
2021/07/03 02:46:16;;;;;;;1.10;0.65;;;;;;;;;;6969131;28;20053;-76
2021/07/03 02:49:37;;;;;;;1.48;0.80;;;;;;;;;;6969200;28;20407;-77
2021/07/03 02:52:57;;;;;;;0.65;0.65;;;;;;;;;;6949366;28;20502;-78
2021/07/03 02:56:18;;;;;;;1.27;0.70;;;;;;;;;;6969128;28;20076;-78
2021/07/03 02:59:38;;;;;;;0.70;0.70;;;;;;;;;;6968903;28;20106;-78
2021/07/03 03:02:58;;;;;;;2.60;0.80;;;;;;;;;;6968942;28;20475;-78
2021/07/03 03:06:19;;;;;;;1.25;0.68;;;;;;;;;;6968773;28;20367;-77
2021/07/03 03:09:40;;;;;;;0.80;0.80;;;;;;;;;;6968911;28;20106;-78
2021/07/03 03:13:00;;;;;;;0.80;0.80;;;;;;;;;;6968281;28;20045;-78
2021/07/03 03:16:21;;;;;;;2.70;0.82;;;;;;;;;;6968457;28;20106;-78
2021/07/03 03:19:41;;;;;;;1.05;0.73;;;;;;;;;;6968507;28;20413;-77
2021/07/03 03:23:02;;;;;;;0.60;0.60;;;;;;;;;;6968551;28;20051;-78
2021/07/03 03:26:22;;;;;;;1.15;0.68;;;;;;;;;;6968387;28;20103;-78
2021/07/03 03:29:42;;;;;;;1.95;0.80;;;;;;;;;;6982426;28;20076;-78
2021/07/03 03:33:03;;;;;;;0.73;0.70;;;;;;;;;;6968098;28;20045;-78
2021/07/03 03:36:23;;;;;;;0.65;0.63;;;;;;;;;;6950007;28;20098;-78
2021/07/03 03:39:44;;;;;;;1.10;0.80;;;;;;;;;;6967974;28;20194;-77
2021/07/03 03:43:04;;;;;;;1.17;0.70;;;;;;;;;;6968112;28;20041;-77
2021/07/03 03:46:24;;;;;;;2.50;0.88;;;;;;;;;;6967630;28;20048;-77
2021/07/03 03:49:45;;;;;;;0.82;0.70;;;;;;;;;;6968348;28;20041;-77
2021/07/03 03:53:05;;;;;;;0.80;0.80;;;;;;;;;;6948983;28;20411;-77
2021/07/03 03:56:26;;;;;;;1.55;0.82;;;;;;;;;;6967839;28;20052;-78
2021/07/03 03:59:46;;;;;;;0.93;0.70;;;;;;;;;;6948414;28;20045;-77
2021/07/03 04:03:07;;;;;;;0.70;0.60;;;;;;;;;;6967671;28;20084;-78
2021/07/03 04:06:27;;;;;;;0.90;0.77;;;;;;;;;;6970471;28;20045;-77
2021/07/03 04:09:48;;;;;;;0.88;0.77;;;;;;;;;;6972175;28;20136;-77
2021/07/03 04:13:09;;;;;;;0.50;0.50;;;;;;;;;;6972276;28;20082;-77
2021/07/03 04:16:29;;;;;;;0.95;0.85;;;;;;;;;;6972231;28;20137;-77
2021/07/03 04:19:49;;;;;;;2.05;1.00;;;;;;;;;;6972463;28;20040;-77
2021/07/03 04:23:10;;;;;;;0.68;0.68;;;;;;;;;;6972113;28;20081;-77
2021/07/03 04:26:30;;;;;;;1.95;0.80;;;;;;;;;;6954350;28;20414;-77
2021/07/03 04:29:51;;;;;;;0.63;0.63;;;;;;;;;;6971628;28;20129;-77
2021/07/03 04:33:11;;;;;;;0.80;0.80;;;;;;;;;;6971887;28;20107;-77
2021/07/03 04:36:32;;;;;;;0.50;0.50;;;;;;;;;;6971804;28;20533;-77
2021/07/03 04:39:52;;;;;;;0.90;0.80;;;;;;;;;;6952713;28;20402;-77
2021/07/03 04:43:13;;;;;;;0.85;0.75;;;;;;;;;;6971595;28;20045;-78
2021/07/03 04:46:34;;;;;;;0.63;0.63;;;;;;;;;;6971825;28;20137;-78
2021/07/03 04:49:54;;;;;;;1.25;0.68;;;;;;;;;;6971503;28;20041;-77
2021/07/03 04:53:15;;;;;;;0.80;0.80;;;;;;;;;;6953894;28;20084;-77
2021/07/03 04:56:35;;;;;;;0.60;0.60;;;;;;;;;;6971701;28;20049;-76
2021/07/03 04:59:56;;;;;;;0.68;0.60;;;;;;;;;;6971569;28;20045;-77
2021/07/03 05:03:16;;;;;;;0.55;0.55;;;;;;;;;;6971647;28;20052;-77
2021/07/03 05:06:36;;;;;;;0.70;0.70;;;;;;;;;;6971203;28;20073;-77
2021/07/03 05:09:57;;;;;;;3.13;0.88;;;;;;;;;;6971477;28;20041;-77
2021/07/03 05:13:17;;;;;;;0.82;0.73;;;;;;;;;;6971197;28;20136;-77
2021/07/03 05:16:38;;;;;;;2.42;0.70;;;;;;;;;;6971044;28;20521;-77
2021/07/03 05:19:58;;;;;;;0.57;0.57;;;;;;;;;;6970506;28;20045;-78
2021/07/03 05:23:19;;;;;;;2.42;0.77;;;;;;;;;;6971085;28;20076;-78
2021/07/03 05:26:39;;;;;;;0.60;0.60;;;;;;;;;;6970726;28;20044;-78
2021/07/03 05:30:00;;;;;;;1.88;0.60;;;;;;;;;;6970934;28;20098;-77
2021/07/03 05:33:20;;;;;;;0.93;0.60;;;;;;;;;;6952027;28;20143;-77
2021/07/03 05:36:41;;;;;;;1.50;0.73;;;;;;;;;;6970945;28;20041;-77
2021/07/03 05:40:03;;;;;;;1.30;0.80;;;;;;;;;;6970540;28;20087;-77
2021/07/03 05:43:23;;;;;;;2.65;0.98;;;;;;;;;;6952897;28;20052;-77
2021/07/03 05:46:43;;;;;;;0.85;0.70;;;;;;;;;;6970016;28;20474;-78
2021/07/03 05:50:04;;;;;;;0.65;0.65;;;;;;;;;;6969503;28;20111;-77
2021/07/03 05:53:25;;;;;;;0.75;0.75;;;;;;;;;;6970102;28;20403;-77
2021/07/03 05:56:45;;;;;;;2.00;0.80;;;;;;;;;;6970026;28;20037;-77
2021/07/03 06:00:07;;;;;;;0.70;0.70;;;;;;;;;;6970079;28;20048;-77
2021/07/03 06:03:28;;;;;;;0.50;0.50;;;;;;;;;;6969357;28;20048;-77
2021/07/03 06:06:48;;;;;;;0.65;0.65;;;;;;;;;;6967621;28;20131;-78
2021/07/03 06:10:10;;;;;;;0.60;0.60;;;;;;;;;;6966490;28;20053;-78
2021/07/03 06:13:30;;;;;;;0.60;0.60;;;;;;;;;;6951753;28;20127;-78
2021/07/03 06:16:51;;;;;;;1.90;0.60;;;;;;;;;;6968409;28;20391;-77
2021/07/03 06:20:12;;;;;;;0.80;0.57;;;;;;;;;;6969676;28;20081;-77
2021/07/03 06:23:32;;;;;;;0.60;0.60;;;;;;;;;;6968973;28;20136;-78
2021/07/03 06:26:53;;;;;;;1.05;0.80;;;;;;;;;;6965457;28;20138;-78
2021/07/03 06:30:14;;;;;;;1.95;0.70;;;;;;;;;;6968099;28;20083;-78
2021/07/03 06:33:34;;;;;;;2.28;0.82;;;;;;;;;;6969187;28;20056;-76
2021/07/03 06:36:54;;;;;;;0.60;0.60;;;;;;;;;;6968829;28;20049;-77
2021/07/03 06:40:15;;;;;;;0.52;0.52;;;;;;;;;;6964210;28;20080;-77
2021/07/03 06:43:37;;;;;;;0.50;0.50;;;;;;;;;;6969045;28;20041;-77
2021/07/03 06:46:57;;;;;;;2.85;0.70;;;;;;;;;;6951609;28;20501;-76
2021/07/03 06:50:18;;;;;;;0.57;0.50;;;;;;;;;;6962733;28;20049;-77
2021/07/03 06:53:38;;;;;;;0.47;0.47;;;;;;;;;;6968353;28;20063;-76
2021/07/03 06:56:58;;;;;;;0.80;0.80;;;;;;;;;;6962768;28;20052;-77
2021/07/03 07:00:19;;;;;;;4.80;0.80;;;;;;;;;;6966598;28;20494;-77
2021/07/03 07:03:40;;;;;;;0.70;0.70;;;;;;;;;;6967501;28;20052;-78
2021/07/03 07:07:00;;;;;;;0.60;0.60;;;;;;;;;;6969317;28;20115;-77
2021/07/03 07:10:21;;;;;;;0.80;0.80;;;;;;;;;;6969251;28;20056;-77
2021/07/03 07:13:41;;;;;;;1.08;0.70;;;;;;;;;;6969307;28;20066;-78
2021/07/03 07:17:02;;;;;;;0.40;0.40;;;;;;;;;;6968806;28;20048;-78
2021/07/03 07:20:25;;;;;;;0.52;0.52;;;;;;;;;;6968355;28;20045;-79
2021/07/03 07:23:46;;;;;;;1.38;0.80;;;;;;;;;;6968914;28;20041;-78
2021/07/03 07:27:06;;;;;;;1.17;0.70;;;;;;;;;;6968651;28;20159;-78
2021/07/03 07:30:27;;;;;;;0.70;0.60;;;;;;;;;;6969052;28;20383;-78
2021/07/03 07:33:47;;;;;;;0.88;0.60;;;;;;;;;;6968464;28;20064;-78
2021/07/03 07:37:09;;;;;;;0.73;0.60;;;;;;;;;;6981415;28;20474;-77
2021/07/03 07:40:29;;;;;;;2.28;0.77;;;;;;;;;;6971800;28;20402;-78
2021/07/03 07:43:50;;;;;;;1.35;0.73;;;;;;;;;;6954867;28;20471;-77
2021/07/03 07:47:11;;;;;;;1.85;0.70;;;;;;;;;;6973261;28;20049;-78
2021/07/03 07:50:31;;;;;;;0.70;0.70;;;;;;;;;;6955649;28;20061;-79
2021/07/03 07:53:52;;;;;;;0.95;0.63;;;;;;;;;;6972901;28;20130;-78
2021/07/03 07:57:12;;;;;;;1.98;0.60;;;;;;;;;;6973212;28;20040;-77
2021/07/03 08:00:33;;;;;;;3.03;0.70;;;;;;;;;;6972520;28;20442;-77
2021/07/03 08:03:53;;;;;;;0.75;0.50;;;;;;;;;;6973270;28;20053;-79
2021/07/03 08:07:13;;;;;;;21.23;1.00;;;;;;;;;;6972577;28;20136;-82
2021/07/03 08:10:38;;;;;;;7.32;1.00;;;;;;;;;;6972763;28;20041;-76
2021/07/03 08:13:58;;;;;;;1.77;0.98;;;;;;;;;;6971842;28;20044;-78
2021/07/03 08:17:19;;;;;;;2.63;0.77;;;;;;;;;;6954177;28;20099;-77
2021/07/03 08:20:39;;;;;;;1.30;1.05;;;;;;;;;;6972093;28;20041;-76
2021/07/03 08:24:00;;;;;;;3.03;1.10;;;;;;;;;;6972007;28;20049;-78
2021/07/03 08:27:20;;;;;;;3.95;0.90;;;;;;;;;;6971805;28;20136;-77
2021/07/03 08:30:41;;;;;;;2.08;1.00;;;;;;;;;;6972268;28;20045;-76
2021/07/03 08:34:01;;;;;;;3.03;0.95;;;;;;;;;;6971574;28;20049;-78
2021/07/03 08:37:22;;;;;;;1.77;0.98;;;;;;;;;;6972236;28;20495;-78
2021/07/03 08:40:42;;;;;;;4.53;0.80;;;;;;;;;;6972062;28;20048;-78
2021/07/03 08:44:03;;;;;;;2.35;1.00;;;;;;;;;;6971616;28;20055;-77
2021/07/03 08:47:23;;;;;;;1.85;0.80;;;;;;;;;;6971960;28;20051;-77
2021/07/03 08:50:43;;;;;;;3.55;0.82;;;;;;;;;;6970793;28;20517;-76
2021/07/03 08:54:05;;;;;;;0.70;0.70;;;;;;;;;;6952407;28;20407;-77
2021/07/03 08:57:26;;;;;;;1.58;0.80;;;;;;;;;;6971558;28;20166;-78
2021/07/03 09:00:47;;;;;;;0.70;0.68;;;;;;;;;;6967105;28;20132;-78
2021/07/03 09:04:07;;;;;;;2.05;0.77;;;;;;;;;;6970924;28;20110;-78
2021/07/03 09:07:34;;;;;;;1.52;0.60;;;;;;;;;;6971335;28;20390;-79
2021/07/03 09:11:02;;;;;;;0.50;0.50;;;;;;;;;;6971170;28;20052;-77
2021/07/03 09:14:27;;;;;;;0.90;0.60;;;;;;;;;;6971407;28;20053;-76
2021/07/03 09:17:55;;;;;;;3.30;0.70;;;;;;;;;;6953267;28;20135;-76
2021/07/03 09:21:16;;;;;;;1.35;0.70;;;;;;;;;;6953154;28;20476;-76
2021/07/03 09:24:36;;;;;;;0.70;0.70;;;;;;;;;;6970657;28;20053;-76
2021/07/03 09:28:04;;;;;;;2.13;0.80;;;;;;;;;;6971300;28;20059;-76
2021/07/03 09:31:24;;;;;;;0.95;0.73;;;;;;;;;;6952836;28;20040;-76
2021/07/03 09:34:45;;;;;;;4.82;1.05;;;;;;;;;;6952783;28;20083;-76
2021/07/03 09:38:07;;;;;;;0.93;0.70;;;;;;;;;;6970569;28;20084;-76
2021/07/03 09:41:37;;;;;;;2.17;0.90;;;;;;;;;;6970418;28;20053;-77
2021/07/03 09:44:57;;;;;;;0.82;0.65;;;;;;;;;;6970425;28;20441;-76
2021/07/03 09:48:18;;;;;;;0.60;0.60;;;;;;;;;;6970654;28;20383;-76
2021/07/03 09:51:44;;;;;;;0.63;0.60;;;;;;;;;;6970353;28;20532;-76
2021/07/03 09:55:06;;;;;;;0.98;0.73;;;;;;;;;;6970250;28;20037;-77
2021/07/03 09:58:26;;;;;;;0.70;0.65;;;;;;;;;;6970105;28;20045;-76
2021/07/03 10:01:47;;;;;;;1.38;0.70;;;;;;;;;;6952423;28;20128;-76
2021/07/03 10:05:07;;;;;;;1.13;0.80;;;;;;;;;;6968435;28;20084;-77
2021/07/03 10:08:29;;;;;;;0.60;0.60;;;;;;;;;;6969695;28;20045;-77
2021/07/03 10:11:52;;;;;;;1.05;0.70;;;;;;;;;;6952442;28;20041;-76
2021/07/03 10:15:13;;;;;;;0.82;0.75;;;;;;;;;;6950341;28;20048;-78
2021/07/03 10:18:34;;;;;;;1.95;0.73;;;;;;;;;;6969982;28;20041;-79
2021/07/03 10:21:55;;;;;;;0.88;0.70;;;;;;;;;;6970081;28;20056;-78
2021/07/03 10:25:16;;;;;;;0.85;0.80;;;;;;;;;;6970115;28;20044;-78
2021/07/03 10:28:38;;;;;;;0.65;0.65;;;;;;;;;;6970784;28;20437;-78
2021/07/03 10:31:58;;;;;;;0.50;0.50;;;;;;;;;;6970293;28;20065;-76
2021/07/03 10:35:20;;;;;;;3.10;0.80;;;;;;;;;;6969466;28;20064;-77
2021/07/03 10:38:42;;;;;;;1.85;0.68;;;;;;;;;;6959729;28;20075;-77
2021/07/03 10:42:03;;;;;;;3.70;0.90;;;;;;;;;;6963906;28;20077;-77
2021/07/03 10:45:24;;;;;;;3.05;0.80;;;;;;;;;;6962742;28;20040;-78
2021/07/03 10:48:54;;;;;;;0.95;0.80;;;;;;;;;;6966101;28;20080;-78
2021/07/03 10:52:16;;;;;;;1.40;0.88;;;;;;;;;;6948834;28;20412;-78
2021/07/03 10:55:40;;;;;;;0.80;0.63;;;;;;;;;;6951002;28;20376;-77
2021/07/03 10:59:08;;;;;;;1.33;0.80;;;;;;;;;;6968910;28;20052;-78
2021/07/03 11:02:30;;;;;;;1.55;0.90;;;;;;;;;;6951507;28;20529;-78
2021/07/03 11:05:51;;;;;;;3.72;1.08;;;;;;;;;;6969004;28;20403;-78
2021/07/03 11:09:28;;;;;;;0.93;0.82;;;;;;;;;;6950504;28;20048;-78
2021/07/03 11:12:55;;;;;;;2.72;0.88;;;;;;;;;;6968806;28;20049;-78
2021/07/03 11:16:16;;;;;;;1.48;1.10;;;;;;;;;;6967117;28;20511;-78
2021/07/03 11:19:36;;;;;;;0.60;0.60;;;;;;;;;;6950070;28;20084;-77
2021/07/03 11:22:59;;;;;;;4.25;0.88;;;;;;;;;;6949796;28;20425;-77
2021/07/03 11:26:34;;;;;;;1.33;0.80;;;;;;;;;;6944796;28;20378;-77
2021/07/03 11:29:55;;;;;;;0.75;0.55;;;;;;;;;;6971027;28;20065;-78
2021/07/03 11:33:16;;;;;;;0.70;0.70;;;;;;;;;;6963889;28;20048;-77
2021/07/03 11:36:36;;;;;;;0.90;0.73;;;;;;;;;;6953868;28;20037;-78
2021/07/03 11:39:58;;;;;;;0.73;0.70;;;;;;;;;;6968435;28;20076;-77
2021/07/03 11:43:20;;;;;;;0.63;0.63;;;;;;;;;;6966825;28;20483;-78
2021/07/03 11:46:49;;;;;;;0.57;0.57;;;;;;;;;;6961964;28;20059;-78
2021/07/03 11:50:30;;;;;;;1.83;0.60;;;;;;;;;;6968176;28;20117;-77
2021/07/03 11:53:53;;;;;;;0.50;0.50;;;;;;;;;;6966945;28;20099;-77
2021/07/03 11:57:14;;;;;;;0.98;0.52;;;;;;;;;;6978028;28;20048;-78
2021/07/03 12:00:36;;;;;;;1.55;0.80;;;;;;;;;;6971164;28;20136;-76
2021/07/03 12:03:58;;;;;;;2.33;0.50;;;;;;;;;;6967915;28;20398;-77
2021/07/03 12:07:21;;;;;;;1.33;0.70;;;;;;;;;;6966989;28;20056;-78
2021/07/03 12:10:42;;;;;;;1.23;0.60;;;;;;;;;;6966822;28;20041;-77
2021/07/03 12:14:03;;;;;;;0.47;0.47;;;;;;;;;;6967540;28;20052;-78
2021/07/03 12:17:23;;;;;;;1.05;0.73;;;;;;;;;;6950039;28;20092;-77
2021/07/03 12:20:44;;;;;;;0.57;0.57;;;;;;;;;;6948742;28;20499;-77
2021/07/03 12:24:08;;;;;;;1.05;0.60;;;;;;;;;;6968642;28;20041;-77
2021/07/03 12:27:29;;;;;;;1.15;0.80;;;;;;;;;;6969678;28;20056;-77
2021/07/03 12:30:49;;;;;;;0.82;0.60;;;;;;;;;;6973283;28;20045;-77
2021/07/03 12:34:27;;;;;;;0.70;0.70;;;;;;;;;;6973047;28;20052;-78
2021/07/03 12:37:58;;;;;;;0.53;0.50;;;;;;;;;;6946715;28;20037;-78
2021/07/03 12:41:18;;;;;;;0.50;0.50;;;;;;;;;;6971950;28;20478;-77
2021/07/03 12:44:48;;;;;;;0.77;0.68;;;;;;;;;;6952116;28;20144;-77
2021/07/03 12:48:15;;;;;;;0.55;0.55;;;;;;;;;;6963989;28;20479;-78
2021/07/03 12:51:37;;;;;;;0.60;0.50;;;;;;;;;;6955902;28;20045;-77
2021/07/03 12:54:58;;;;;;;0.82;0.60;;;;;;;;;;6955706;28;20052;-76
2021/07/03 12:58:27;;;;;;;0.50;0.50;;;;;;;;;;6972793;28;20044;-77
2021/07/03 13:01:47;;;;;;;;;;;;;;;;;;6972132;28;20510;-77
2021/07/03 13:05:10;;;;;;;1.03;0.50;;;;;;;;;;6970545;28;19952;-78
2021/07/03 13:08:31;;;;;;;1.08;0.80;;;;;;;;;;6953336;28;20380;-77
2021/07/03 13:11:52;;;;;;;0.50;0.50;;;;;;;;;;6971332;28;20033;-77
2021/07/03 13:15:13;;;;;;;2.70;0.65;;;;;;;;;;6970442;28;20064;-77
2021/07/03 13:18:33;;;;;;;1.00;0.60;;;;;;;;;;6971147;28;20115;-77
2021/07/03 13:21:54;;;;;;;0.75;0.60;;;;;;;;;;6970242;28;20045;-77
2021/07/03 13:25:14;;;;;;;0.65;0.55;;;;;;;;;;6970680;28;20036;-78
2021/07/03 13:28:35;;;;;;;1.10;0.70;;;;;;;;;;7118388;22;20402;-86
2021/07/03 13:31:55;;;;;;;0.60;0.60;;;;;;;;;;7024891;28;20040;-88
2021/07/03 13:35:19;;;;;;;0.82;0.40;;;;;;;;;;7025844;28;20048;-86
2021/07/03 13:38:39;;;;;;;0.55;0.55;;;;;;;;;;7025872;28;20478;-88
2021/07/03 13:42:00;;;;;;;0.65;0.65;;;;;;;;;;7008036;28;20063;-90
2021/07/03 13:45:20;;;;;;;0.82;0.60;;;;;;;;;;7025648;28;20135;-88
2021/07/03 13:48:41;;;;;;;0.73;0.70;;;;;;;;;;7022118;28;20040;-86
2021/07/03 13:52:02;;;;;;;2.65;0.65;;;;;;;;;;7024195;28;20958;-87
2021/07/03 13:55:22;;;;;;;0.63;0.55;;;;;;;;;;7024667;28;20048;-87
2021/07/03 13:58:42;;;;;;;2.22;0.80;;;;;;;;;;7025314;28;20048;-86
2021/07/03 14:02:03;;;;;;;0.55;0.50;;;;;;;;;;7025725;28;20547;-86
2021/07/03 14:05:24;;;;;;;2.55;0.50;;;;;;;;;;7025959;28;20172;-87
2021/07/03 14:08:44;;;;;;;0.50;0.50;;;;;;;;;;7026872;28;20040;-86
2021/07/03 14:12:05;;;;;;;1.02;0.60;;;;;;;;;;7026728;28;20086;-88
2021/07/03 14:15:26;;;;;;;1.17;0.60;;;;;;;;;;7027851;28;20048;-85
2021/07/03 14:18:46;;;;;;;1.20;0.70;;;;;;;;;;7024777;28;20374;-87
2021/07/03 14:22:09;;;;;;;2.92;0.80;;;;;;;;;;7027710;28;20397;-87
2021/07/03 14:25:30;;;;;;;1.45;0.70;;;;;;;;;;7028140;28;20044;-86
2021/07/03 14:28:50;;;;;;;0.80;0.70;;;;;;;;;;7025442;28;20516;-89
2021/07/03 14:32:11;;;;;;;0.50;0.50;;;;;;;;;;7014416;28;20075;-89
2021/07/03 14:35:32;;;;;;;0.50;0.50;;;;;;;;;;7027020;28;20044;-88
2021/07/03 14:38:52;;;;;;;0.65;0.65;;;;;;;;;;7026505;28;20131;-86
2021/07/03 14:42:13;;;;;;;1.48;0.85;;;;;;;;;;7025884;28;20044;-86
2021/07/03 14:45:34;;;;;;;0.70;0.70;;;;;;;;;;6995621;28;20057;-89
2021/07/03 14:48:54;;;;;;;0.80;0.80;;;;;;;;;;7021989;28;20138;-87
2021/07/03 14:52:15;;;;;;;0.50;0.50;;;;;;;;;;7025073;28;20394;-89
2021/07/03 14:55:36;;;;;;;2.10;0.80;;;;;;;;;;7023298;28;20082;-90
2021/07/03 14:58:57;;;;;;;1.13;0.90;;;;;;;;;;7024665;28;20056;-88
2021/07/03 15:02:17;;;;;;;0.70;0.70;;;;;;;;;;7024887;28;20504;-88
2021/07/03 15:05:38;;;;;;;3.60;0.77;;;;;;;;;;7024799;28;20048;-90
2021/07/03 15:08:58;;;;;;;0.80;0.80;;;;;;;;;;7024742;28;20047;-89
2021/07/03 15:12:18;;;;;;;0.73;0.70;;;;;;;;;;7024654;28;20044;-85
2021/07/03 15:15:40;;;;;;;1.50;0.70;;;;;;;;;;7016415;28;20140;-88
2021/07/03 15:19:00;;;;;;;0.70;0.70;;;;;;;;;;7018659;28;20417;-87
2021/07/03 15:22:21;;;;;;;3.00;0.70;;;;;;;;;;7002720;28;20102;-88
2021/07/03 15:25:41;;;;;;;0.65;0.65;;;;;;;;;;7015118;28;20127;-88
2021/07/03 15:29:02;;;;;;;0.60;0.60;;;;;;;;;;7009132;28;20044;-90
2021/07/03 15:32:23;;;;;;;0.70;0.70;;;;;;;;;;7022651;28;20040;-88
2021/07/03 15:35:44;;;;;;;1.42;0.65;;;;;;;;;;7003393;28;20090;-89
2021/07/03 15:39:05;;;;;;;1.55;0.65;;;;;;;;;;7005508;28;20036;-88
2021/07/03 15:42:28;;;;;;;0.50;0.50;;;;;;;;;;6988330;28;20055;-85
2021/07/03 15:45:50;;;;;;;0.60;0.60;;;;;;;;;;7024090;28;20109;-88
2021/07/03 15:49:10;;;;;;;0.80;0.80;;;;;;;;;;7023700;28;20044;-92
2021/07/03 15:52:31;;;;;;;0.63;0.63;;;;;;;;;;6948011;28;20076;-92
2021/07/03 15:55:53;;;;;;;1.15;0.77;;;;;;;;;;7005676;28;20052;-91
2021/07/03 15:59:13;;;;;;;0.60;0.50;;;;;;;;;;7005929;28;20051;-91
2021/07/03 16:02:34;;;;;;;1.15;0.60;;;;;;;;;;6994230;28;20044;-94
2021/07/03 16:05:54;;;;;;;1.00;0.60;;;;;;;;;;6984612;28;20063;-90
2021/07/03 16:09:15;;;;;;;0.60;0.60;;;;;;;;;;6995585;28;20046;-89
2021/07/03 16:12:35;;;;;;;3.35;0.60;;;;;;;;;;7025838;28;20130;-90
2021/07/03 16:15:56;;;;;;;0.45;0.45;;;;;;;;;;7008027;28;20040;-89
2021/07/03 16:19:16;;;;;;;1.33;0.60;;;;;;;;;;7022869;28;20146;-90
2021/07/03 16:22:37;;;;;;;1.23;0.63;;;;;;;;;;7027923;28;20044;-89
2021/07/03 16:25:57;;;;;;;0.60;0.60;;;;;;;;;;7011347;28;20125;-89
2021/07/03 16:29:18;;;;;;;0.63;0.60;;;;;;;;;;7033581;28;20052;-89
2021/07/03 16:32:39;;;;;;;0.60;0.60;;;;;;;;;;7029758;28;20056;-88
2021/07/03 16:35:59;;;;;;;1.45;0.80;;;;;;;;;;6985484;28;20105;-88
2021/07/03 16:39:20;;;;;;;0.52;0.52;;;;;;;;;;7035822;28;20055;-88
2021/07/03 16:42:40;;;;;;;0.65;0.65;;;;;;;;;;7036190;28;20135;-88
2021/07/03 16:46:01;;;;;;;0.68;0.60;;;;;;;;;;7035821;28;20036;-88
2021/07/03 16:49:21;;;;;;;0.70;0.70;;;;;;;;;;7028757;28;20113;-89
2021/07/03 16:52:41;;;;;;;0.60;0.60;;;;;;;;;;7032950;28;20047;-88
2021/07/03 16:56:03;;;;;;;3.53;0.60;;;;;;;;;;7021344;28;20043;-89
2021/07/03 16:59:24;;;;;;;0.60;0.60;;;;;;;;;;7021745;28;20059;-89
2021/07/03 17:02:44;;;;;;;0.70;0.70;;;;;;;;;;7025223;28;20044;-88
2021/07/03 17:06:05;;;;;;;1.10;0.60;;;;;;;;;;7017240;28;20051;-89
2021/07/03 17:09:25;;;;;;;0.95;0.70;;;;;;;;;;7025687;28;20062;-88
2021/07/03 17:12:46;;;;;;;0.60;0.55;;;;;;;;;;7023898;28;20166;-88
2021/07/03 17:16:06;;;;;;;0.57;0.57;;;;;;;;;;7017655;28;20132;-88
2021/07/03 17:19:26;;;;;;;1.67;0.43;;;;;;;;;;7025821;28;20047;-88
2021/07/03 17:22:47;;;;;;;0.70;0.70;;;;;;;;;;7018894;28;20076;-88
2021/07/03 17:26:07;;;;;;;0.80;0.70;;;;;;;;;;7021808;28;20486;-88
2021/07/03 17:29:28;;;;;;;1.35;0.70;;;;;;;;;;7031134;28;20048;-88
2021/07/03 17:32:49;;;;;;;0.63;0.63;;;;;;;;;;7024758;28;20412;-88
2021/07/03 17:36:09;;;;;;;1.00;0.70;;;;;;;;;;7025506;28;20143;-88
2021/07/03 17:39:29;;;;;;;0.60;0.60;;;;;;;;;;7025097;28;20051;-88
2021/07/03 17:42:50;;;;;;;0.60;0.60;;;;;;;;;;7025715;28;20382;-88
2021/07/03 17:46:10;;;;;;;0.75;0.75;;;;;;;;;;7025031;28;20563;-88
2021/07/03 17:49:31;;;;;;;0.60;0.60;;;;;;;;;;7025472;28;20052;-88
2021/07/03 17:52:51;;;;;;;1.15;0.73;;;;;;;;;;7025149;28;20051;-88
2021/07/03 17:56:16;;;;;;;0.70;0.70;;;;;;;;;;7023997;28;20059;-86
2021/07/03 17:59:36;;;;;;;8.02;1.13;;;;;;;;;;7023612;28;20040;-83
2021/07/03 18:02:57;;;;;;;2.95;1.48;;;;;;;;;;7026061;28;20067;-84
2021/07/03 18:06:17;;;;;;;10.02;1.75;;;;;;;;;;7006334;28;20044;-85
2021/07/03 18:09:40;;;;;;;5.18;1.27;;;;;;;;;;7024005;28;20044;-86
2021/07/03 18:13:00;;;;;;;7.22;1.80;;;;;;;;;;7025619;28;20190;-89
2021/07/03 18:16:21;;;;;;;17.20;2.58;;;;;;;;;;7026111;28;20052;-85
2021/07/03 18:19:42;;;;;;;14.75;1.90;;;;;;;;;;7013372;28;20062;-86
2021/07/03 18:23:02;;;;;;;6.50;1.92;;;;;;;;;;7022464;28;20501;-86
2021/07/03 18:26:22;;;;;;;3.28;1.33;;;;;;;;;;7023554;28;20052;-85
2021/07/03 18:29:43;;;;;;;3.95;1.35;;;;;;;;;;7024389;28;20044;-85
2021/07/03 18:33:03;;;;;;;5.55;1.40;;;;;;;;;;7024961;28;20086;-85
2021/07/03 18:36:24;;;;;;;3.42;1.50;;;;;;;;;;7026784;28;20044;-84
2021/07/03 18:39:44;;;;;;;3.03;1.50;;;;;;;;;;7024734;28;20135;-84
2021/07/03 18:43:06;;;;;;;5.35;1.70;;;;;;;;;;7020950;28;20043;-83
2021/07/03 18:46:27;;;;;;;5.82;1.75;;;;;;;;;;7016847;28;20051;-85
2021/07/03 18:49:47;;;;;;;1.55;1.10;;;;;;;;;;7011113;28;20135;-85
2021/07/03 18:53:08;;;;;;;2.72;1.45;;;;;;;;;;7009779;28;20087;-84
2021/07/03 18:56:28;;;;;;;6.75;1.27;;;;;;;;;;7024070;28;20379;-85
2021/07/03 18:59:49;;;;;;;6.28;1.65;;;;;;;;;;7023585;28;20040;-85
2021/07/03 19:03:09;;;;;;;6.65;1.95;;;;;;;;;;7024348;28;20052;-85
2021/07/03 19:06:29;;;;;;;7.13;1.50;;;;;;;;;;7024009;28;20048;-85
2021/07/03 19:09:50;;;;;;;5.05;1.48;;;;;;;;;;7024016;28;20497;-84
2021/07/03 19:13:11;;;;;;;8.15;1.90;;;;;;;;;;7022951;28;20043;-85
2021/07/03 19:16:31;;;;;;;5.63;1.42;;;;;;;;;;7023995;28;20067;-85
2021/07/03 19:19:52;;;;;;;15.70;1.80;;;;;;;;;;7004600;28;20062;-84
2021/07/03 19:23:12;;;;;;;3.08;1.40;;;;;;;;;;7009444;28;20072;-86
2021/07/03 19:26:33;;;;;;;9.00;1.63;;;;;;;;;;7008956;28;20147;-85
2021/07/03 19:29:53;;;;;;;10.13;1.70;;;;;;;;;;7023536;28;20063;-85
2021/07/03 19:33:14;;;;;;;2.85;1.38;;;;;;;;;;7023306;28;20044;-84
2021/07/03 19:36:34;;;;;;;2.08;1.45;;;;;;;;;;7021446;28;20067;-85
2021/07/03 19:39:54;;;;;;;11.73;1.50;;;;;;;;;;7022399;28;20413;-85
2021/07/03 19:43:15;;;;;;;7.25;1.58;;;;;;;;;;7021756;28;20040;-85
2021/07/03 19:46:36;;;;;;;4.70;1.45;;;;;;;;;;7022749;28;20040;-84
2021/07/03 19:49:58;;;;;;;3.97;1.70;;;;;;;;;;7021015;28;20052;-85
2021/07/03 19:53:24;;;;;;;7.22;1.95;;;;;;;;;;7021898;28;20044;-86
2021/07/03 19:56:45;;;;;;;6.25;1.75;;;;;;;;;;7019289;28;20094;-85
2021/07/03 20:00:14;;;;;;;5.60;1.98;;;;;;;;;;7022122;28;20044;-85
2021/07/03 20:03:35;;;;;;;8.55;1.55;;;;;;;;;;7019250;28;20419;-85
2021/07/03 20:06:56;;;;;;;10.95;1.80;;;;;;;;;;7022033;28;20127;-85